Time;durP1;ratioP1;P1;durP2;ratioP2;P2;SDS_P1;SDS_P2;PMS_P1;PMS_P2;Temp;Humidity;BMP_temperature;BMP_pressure;BME280_temperature;BME280_humidity;BME280_pressure;Samples;Min_cycle;Max_cycle;Signal;HPM_P1;HPM_P2
2022/12/13 00:02:24;;;;;;;;;;;;;;;;;;6327203;22;20468;-84
2022/12/13 00:04:50;;;;;;;;;;;;;;;;;;6301152;22;19945;-85
2022/12/13 00:07:16;;;;;;;;;;;;;;;;;;6331577;22;19972;-84
2022/12/13 00:09:42;;;;;;;;;;;;;;;;;;6328879;22;19918;-85
2022/12/13 00:12:08;;;;;;;;;;;;;;;;;;6332241;22;19929;-84
2022/12/13 00:14:34;;;;;;;;;;;;;;;;;;6330804;22;20287;-85
2022/12/13 00:17:00;;;;;;;;;;;;;;;;;;6329994;22;19918;-84
2022/12/13 00:19:26;;;;;;;;;;;;;;;;;;6330869;22;20284;-84
2022/12/13 00:21:52;;;;;;;;;;;;;;;;;;6324123;22;19920;-85
2022/12/13 00:24:18;;;;;;;;;;;;;;;;;;6301922;22;19918;-85
2022/12/13 00:26:44;;;;;;;;;;;;;;;;;;6324320;22;19918;-85
2022/12/13 00:29:10;;;;;;;;;;;;;;;;;;6325214;22;19918;-84
2022/12/13 00:31:36;;;;;;;;;;;;;;;;;;6297948;22;19993;-85
2022/12/13 00:34:02;;;;;;;;;;;;;;;;;;6327523;22;19925;-85
2022/12/13 00:36:28;;;;;;;;;;;;;;;;;;6298554;22;19918;-85
2022/12/13 00:39:00;;;;;;;;;;;;;;;;;;6298949;22;20335;-85
2022/12/13 00:41:26;;;;;;;;;;;;;;;;;;6300389;22;19963;-85
2022/12/13 00:43:52;;;;;;;;;;;;;;;;;;6298092;22;19987;-85
2022/12/13 00:46:18;;;;;;;;;;;;;;;;;;6301468;22;20311;-84
2022/12/13 00:48:44;;;;;;;;;;;;;;;;;;6298827;22;19918;-85
2022/12/13 00:51:10;;;;;;;;;;;;;;;;;;6353278;22;19926;-85
2022/12/13 00:53:36;;;;;;;;;;;;;;;;;;6325400;22;19919;-85
2022/12/13 00:56:02;;;;;;;;;;;;;;;;;;6302096;22;20318;-84
2022/12/13 00:58:28;;;;;;;;;;;;;;;;;;6299212;22;19921;-85
2022/12/13 01:00:54;;;;;;;;;;;;;;;;;;6321387;22;19926;-84
2022/12/13 01:03:24;;;;;;;;;;;;;;;;;;6298690;22;19918;-84
2022/12/13 01:05:50;;;;;;;;;;;;;;;;;;6322303;22;19918;-85
2022/12/13 01:08:16;;;;;;;;;;;;;;;;;;6325098;22;20256;-84
2022/12/13 01:10:41;;;;;;;;;;;;;;;;;;6323864;22;20079;-84
2022/12/13 01:13:07;;;;;;;;;;;;;;;;;;6299430;22;20026;-84
2022/12/13 01:15:36;;;;;;;;;;;;;;;;;;6299606;22;19926;-84
2022/12/13 01:18:02;;;;;;;;;;;;;;;;;;6323776;22;19918;-84
2022/12/13 01:20:28;;;;;;;;;;;;;;;;;;6324440;22;19940;-85
2022/12/13 01:22:54;;;;;;;;;;;;;;;;;;6323153;22;20333;-85
2022/12/13 01:25:20;;;;;;;;;;;;;;;;;;6297558;22;20011;-84
2022/12/13 01:27:46;;;;;;;;;;;;;;;;;;6298956;22;19918;-85
2022/12/13 01:30:12;;;;;;;;;;;;;;;;;;6326622;22;19918;-85
2022/12/13 01:32:38;;;;;;;;;;;;;;;;;;6298390;22;19997;-85
2022/12/13 01:35:04;;;;;;;;;;;;;;;;;;6326882;22;19921;-85
2022/12/13 01:37:30;;;;;;;;;;;;;;;;;;6325744;22;19955;-84
2022/12/13 01:39:56;;;;;;;;;;;;;;;;;;6321005;22;20288;-84
2022/12/13 01:42:22;;;;;;;;;;;;;;;;;;6322526;22;20246;-84
2022/12/13 01:44:48;;;;;;;;;;;;;;;;;;6295966;22;20321;-84
2022/12/13 01:47:14;;;;;;;;;;;;;;;;;;6323961;22;20042;-84
2022/12/13 01:49:40;;;;;;;;;;;;;;;;;;6322695;22;20323;-85
2022/12/13 01:52:06;;;;;;;;;;;;;;;;;;6328176;22;19918;-85
2022/12/13 01:54:32;;;;;;;;;;;;;;;;;;6327549;22;20404;-84
2022/12/13 01:56:58;;;;;;;;;;;;;;;;;;6323371;22;19918;-85
2022/12/13 01:59:25;;;;;;;;;;;;;;;;;;6327903;22;19976;-85
2022/12/13 02:01:51;;;;;;;;;;;;;;;;;;6297845;22;19918;-85
2022/12/13 02:04:17;;;;;;;;;;;;;;;;;;6326039;22;19924;-84
2022/12/13 02:06:43;;;;;;;;;;;;;;;;;;6321515;22;19918;-84
2022/12/13 02:09:09;;;;;;;;;;;;;;;;;;6323550;22;20007;-84
2022/12/13 02:11:35;;;;;;;;;;;;;;;;;;6298021;22;19918;-85
2022/12/13 02:14:01;;;;;;;;;;;;;;;;;;6298489;22;19918;-85
2022/12/13 02:16:27;;;;;;;;;;;;;;;;;;6323278;22;19994;-85
2022/12/13 02:18:53;;;;;;;;;;;;;;;;;;6299381;22;19926;-84
2022/12/13 02:21:19;;;;;;;;;;;;;;;;;;6327484;22;20005;-85
2022/12/13 02:23:45;;;;;;;;;;;;;;;;;;6322693;22;19940;-84
2022/12/13 02:26:11;;;;;;;;;;;;;;;;;;6301295;22;19926;-84
2022/12/13 02:28:37;;;;;;;;;;;;;;;;;;6297115;22;19929;-84
2022/12/13 02:31:03;;;;;;;;;;;;;;;;;;6355915;22;19922;-85
2022/12/13 02:33:29;;;;;;;;;;;;;;;;;;6302052;22;19954;-85
2022/12/13 02:35:55;;;;;;;;;;;;;;;;;;6322953;22;20978;-85
2022/12/13 02:38:21;;;;;;;;;;;;;;;;;;6301452;22;19976;-85
2022/12/13 02:40:47;;;;;;;;;;;;;;;;;;6301667;22;20117;-85
2022/12/13 02:43:13;;;;;;;;;;;;;;;;;;6302572;22;20036;-85
2022/12/13 02:45:39;;;;;;;;;;;;;;;;;;6299278;22;19918;-85
2022/12/13 02:48:05;;;;;;;;;;;;;;;;;;6301623;22;19918;-85
2022/12/13 02:50:31;;;;;;;;;;;;;;;;;;6327903;22;19929;-85
2022/12/13 02:52:57;;;;;;;;;;;;;;;;;;6324613;22;19922;-85
2022/12/13 02:55:22;;;;;;;;;;;;;;;;;;6333182;22;19936;-85
2022/12/13 02:57:48;;;;;;;;;;;;;;;;;;6300037;22;20589;-85
2022/12/13 03:00:14;;;;;;;;;;;;;;;;;;6330616;22;20010;-85
2022/12/13 03:02:40;;;;;;;;;;;;;;;;;;6355801;22;19958;-85
2022/12/13 03:07:51;;;;;;;;;;;;;;;;;;6325426;22;19922;-85
2022/12/13 03:10:19;;;;;;;;;;;;;;;;;;6330282;22;19918;-85
2022/12/13 03:15:29;;;;;;;;;;;;;;;;;;6332046;22;19918;-85
2022/12/13 03:17:55;;;;;;;;;;;;;;;;;;6329142;22;20205;-85
2022/12/13 03:20:21;;;;;;;;;;;;;;;;;;6332578;22;19964;-85
2022/12/13 03:22:47;;;;;;;;;;;;;;;;;;6355782;22;20362;-85
2022/12/13 03:25:13;;;;;;;;;;;;;;;;;;6330594;22;20106;-85
2022/12/13 03:27:39;;;;;;;;;;;;;;;;;;6325914;22;19918;-84
2022/12/13 03:30:05;;;;;;;;;;;;;;;;;;6328741;22;19940;-84
2022/12/13 03:32:31;;;;;;;;;;;;;;;;;;6301790;22;19922;-84
2022/12/13 03:34:57;;;;;;;;;;;;;;;;;;6324685;22;19918;-84
2022/12/13 03:37:23;;;;;;;;;;;;;;;;;;6329450;22;19997;-84
2022/12/13 03:39:49;;;;;;;;;;;;;;;;;;6325240;22;19943;-84
2022/12/13 03:42:16;;;;;;;;;;;;;;;;;;6355472;22;20626;-85
2022/12/13 03:44:42;;;;;;;;;;;;;;;;;;6298976;22;19918;-85
2022/12/13 03:47:08;;;;;;;;;;;;;;;;;;6328562;22;20277;-84
2022/12/13 03:49:34;;;;;;;;;;;;;;;;;;6328314;22;19918;-84
2022/12/13 03:52:00;;;;;;;;;;;;;;;;;;6300405;22;19928;-84
2022/12/13 03:54:26;;;;;;;;;;;;;;;;;;6303212;22;20357;-85
2022/12/13 03:56:52;;;;;;;;;;;;;;;;;;6327309;22;20643;-85
2022/12/13 03:59:18;;;;;;;;;;;;;;;;;;6304045;22;20327;-84
2022/12/13 04:01:44;;;;;;;;;;;;;;;;;;6326620;22;20248;-85
2022/12/13 04:04:10;;;;;;;;;;;;;;;;;;6304673;22;19964;-84
2022/12/13 04:06:35;;;;;;;;;;;;;;;;;;6326184;22;19914;-85
2022/12/13 04:09:01;;;;;;;;;;;;;;;;;;6301936;22;19918;-85
2022/12/13 04:14:12;;;;;;;;;;;;;;;;;;6328058;22;20242;-84
2022/12/13 04:16:38;;;;;;;;;;;;;;;;;;6323106;22;19914;-85
2022/12/13 04:19:04;;;;;;;;;;;;;;;;;;6303294;22;20430;-84
2022/12/13 04:21:30;;;;;;;;;;;;;;;;;;6305068;22;19961;-84
2022/12/13 04:23:56;;;;;;;;;;;;;;;;;;6300747;22;19918;-84
2022/12/13 04:26:22;;;;;;;;;;;;;;;;;;6304777;22;19918;-84
2022/12/13 04:28:48;;;;;;;;;;;;;;;;;;6352980;22;19930;-84
2022/12/13 04:31:14;;;;;;;;;;;;;;;;;;6354501;22;19922;-85
2022/12/13 04:33:40;;;;;;;;;;;;;;;;;;6326484;22;19981;-84
2022/12/13 04:36:06;;;;;;;;;;;;;;;;;;6328004;22;19918;-84
2022/12/13 04:38:32;;;;;;;;;;;;;;;;;;6327700;22;19925;-85
2022/12/13 04:40:58;;;;;;;;;;;;;;;;;;6300892;22;19958;-84
2022/12/13 04:43:24;;;;;;;;;;;;;;;;;;6356300;22;19924;-84
2022/12/13 04:45:50;;;;;;;;;;;;;;;;;;6324705;22;19918;-85
2022/12/13 04:48:16;;;;;;;;;;;;;;;;;;6328024;22;20004;-84
2022/12/13 04:50:41;;;;;;;;;;;;;;;;;;6300517;22;19969;-84
2022/12/13 04:53:07;;;;;;;;;;;;;;;;;;6328700;22;19961;-84
2022/12/13 04:55:33;;;;;;;;;;;;;;;;;;6327063;22;19918;-83
2022/12/13 04:58:02;;;;;;;;;;;;;;;;;;6302222;22;20560;-84
2022/12/13 05:00:28;;;;;;;;;;;;;;;;;;6330141;22;19918;-84
2022/12/13 05:02:54;;;;;;;;;;;;;;;;;;6295983;22;19925;-84
2022/12/13 05:05:21;;;;;;;;;;;;;;;;;;6301055;22;19922;-84
2022/12/13 05:07:47;;;;;;;;;;;;;;;;;;6325581;22;19914;-84
2022/12/13 05:10:13;;;;;;;;;;;;;;;;;;6327507;22;20508;-84
2022/12/13 05:12:39;;;;;;;;;;;;;;;;;;6299093;22;20331;-84
2022/12/13 05:15:05;;;;;;;;;;;;;;;;;;6327617;22;19988;-84
2022/12/13 05:17:31;;;;;;;;;;;;;;;;;;6327938;22;19922;-84
2022/12/13 05:19:56;;;;;;;;;;;;;;;;;;6326321;22;19953;-84
2022/12/13 05:22:22;;;;;;;;;;;;;;;;;;6302451;22;20277;-84
2022/12/13 05:24:48;;;;;;;;;;;;;;;;;;6327074;22;20223;-84
2022/12/13 05:27:14;;;;;;;;;;;;;;;;;;6354171;22;19918;-84
2022/12/13 05:29:40;;;;;;;;;;;;;;;;;;6298609;22;19922;-84
2022/12/13 05:32:06;;;;;;;;;;;;;;;;;;6354442;22;19922;-84
2022/12/13 05:34:32;;;;;;;;;;;;;;;;;;6354666;22;19989;-88
2022/12/13 05:36:58;;;;;;;;;;;;;;;;;;6353327;22;19985;-88
2022/12/13 05:39:24;;;;;;;;;;;;;;;;;;6329950;22;19975;-87
2022/12/13 05:41:50;;;;;;;;;;;;;;;;;;6353569;22;19969;-87
2022/12/13 05:44:16;;;;;;;;;;;;;;;;;;6330566;22;19918;-88
2022/12/13 05:46:42;;;;;;;;;;;;;;;;;;6327259;22;19918;-88
2022/12/13 05:49:08;;;;;;;;;;;;;;;;;;6329086;22;19966;-88
2022/12/13 05:51:34;;;;;;;;;;;;;;;;;;6353212;22;19960;-87
2022/12/13 05:54:00;;;;;;;;;;;;;;;;;;6299751;22;20544;-88
2022/12/13 05:56:26;;;;;;;;;;;;;;;;;;6324926;22;20007;-87
2022/12/13 05:58:53;;;;;;;;;;;;;;;;;;6298768;22;19914;-87
2022/12/13 06:01:19;;;;;;;;;;;;;;;;;;6296491;22;20510;-87
2022/12/13 06:03:44;;;;;;;;;;;;;;;;;;6328118;22;19963;-88
2022/12/13 06:06:11;;;;;;;;;;;;;;;;;;6302876;22;19957;-87
2022/12/13 06:08:37;;;;;;;;;;;;;;;;;;6326890;22;20247;-88
2022/12/13 06:11:02;;;;;;;;;;;;;;;;;;6329502;22;19961;-88
2022/12/13 06:13:28;;;;;;;;;;;;;;;;;;6326735;22;20601;-88
2022/12/13 06:15:54;;;;;;;;;;;;;;;;;;6297711;22;20827;-87
2022/12/13 06:18:20;;;;;;;;;;;;;;;;;;6328538;22;19922;-88
2022/12/13 06:20:46;;;;;;;;;;;;;;;;;;6326630;22;20371;-88
2022/12/13 06:23:12;;;;;;;;;;;;;;;;;;6301830;22;20603;-88
2022/12/13 06:25:38;;;;;;;;;;;;;;;;;;6325426;22;19918;-88
2022/12/13 06:28:04;;;;;;;;;;;;;;;;;;6300592;22;19921;-88
2022/12/13 06:30:30;;;;;;;;;;;;;;;;;;6328090;22;19985;-88
2022/12/13 06:32:56;;;;;;;;;;;;;;;;;;6325646;22;19993;-88
2022/12/13 06:35:22;;;;;;;;;;;;;;;;;;6301351;22;20246;-88
2022/12/13 06:37:48;;;;;;;;;;;;;;;;;;6323994;22;19918;-88
2022/12/13 06:40:14;;;;;;;;;;;;;;;;;;6301972;22;19914;-88
2022/12/13 06:42:40;;;;;;;;;;;;;;;;;;6296333;22;19918;-88
2022/12/13 06:45:06;;;;;;;;;;;;;;;;;;6329588;22;19918;-88
2022/12/13 06:47:32;;;;;;;;;;;;;;;;;;6331241;22;20315;-88
2022/12/13 06:49:57;;;;;;;;;;;;;;;;;;6351890;22;20291;-88
2022/12/13 06:52:23;;;;;;;;;;;;;;;;;;6328609;22;20358;-88
2022/12/13 06:54:49;;;;;;;;;;;;;;;;;;6300430;22;20320;-88
2022/12/13 06:57:15;;;;;;;;;;;;;;;;;;6302962;22;20333;-88
2022/12/13 06:59:41;;;;;;;;;;;;;;;;;;6327473;22;19938;-88
2022/12/13 07:02:07;;;;;;;;;;;;;;;;;;6301486;22;20745;-87
2022/12/13 07:04:33;;;;;;;;;;;;;;;;;;6326791;22;20353;-88
2022/12/13 07:06:59;;;;;;;;;;;;;;;;;;6326844;22;19918;-88
2022/12/13 07:09:25;;;;;;;;;;;;;;;;;;6331793;22;19918;-87
2022/12/13 07:11:51;;;;;;;;;;;;;;;;;;6302881;22;19962;-88
2022/12/13 07:14:17;;;;;;;;;;;;;;;;;;6330751;22;20496;-87
2022/12/13 07:16:43;;;;;;;;;;;;;;;;;;6301785;22;19948;-87
2022/12/13 07:19:09;;;;;;;;;;;;;;;;;;6327416;22;19985;-87
2022/12/13 07:21:37;;;;;;;;;;;;;;;;;;6303427;22;19941;-87
2022/12/13 07:24:03;;;;;;;;;;;;;;;;;;6332254;22;19918;-87
2022/12/13 07:26:29;;;;;;;;;;;;;;;;;;6332483;22;20295;-87
2022/12/13 07:28:55;;;;;;;;;;;;;;;;;;6330737;22;19918;-87
2022/12/13 07:31:21;;;;;;;;;;;;;;;;;;6332961;22;19934;-88
2022/12/13 07:33:47;;;;;;;;;;;;;;;;;;6329848;22;19914;-88
2022/12/13 07:36:13;;;;;;;;;;;;;;;;;;6333121;22;20353;-88
2022/12/13 07:38:39;;;;;;;;;;;;;;;;;;6303577;22;19989;-87
2022/12/13 07:41:05;;;;;;;;;;;;;;;;;;6307891;22;20332;-88
2022/12/13 07:43:31;;;;;;;;;;;;;;;;;;6332673;22;19993;-88
2022/12/13 07:45:57;;;;;;;;;;;;;;;;;;6329533;22;20321;-88
2022/12/13 07:48:23;;;;;;;;;;;;;;;;;;6331543;22;19918;-88
2022/12/13 07:50:49;;;;;;;;;;;;;;;;;;6302011;22;19922;-88
2022/12/13 07:53:15;;;;;;;;;;;;;;;;;;6328530;22;19918;-88
2022/12/13 07:55:41;;;;;;;;;;;;;;;;;;6329377;22;19924;-88
2022/12/13 07:58:07;;;;;;;;;;;;;;;;;;6306021;22;20331;-88
2022/12/13 08:00:33;;;;;;;;;;;;;;;;;;6306641;22;19989;-88
2022/12/13 08:02:59;;;;;;;;;;;;;;;;;;6303058;22;19918;-88
2022/12/13 08:05:25;;;;;;;;;;;;;;;;;;6304598;22;19914;-87
2022/12/13 08:07:51;;;;;;;;;;;;;;;;;;6301146;22;19957;-88
2022/12/13 08:10:17;;;;;;;;;;;;;;;;;;6306732;22;20327;-88
2022/12/13 08:12:43;;;;;;;;;;;;;;;;;;6302488;22;20358;-88
2022/12/13 08:15:09;;;;;;;;;;;;;;;;;;6306023;22;19922;-88
2022/12/13 08:17:35;;;;;;;;;;;;;;;;;;6328947;22;19987;-88
2022/12/13 08:20:01;;;;;;;;;;;;;;;;;;6329960;22;19925;-88
2022/12/13 08:22:27;;;;;;;;;;;;;;;;;;6329216;22;19914;-88
2022/12/13 08:24:53;;;;;;;;;;;;;;;;;;6329270;22;19914;-88
2022/12/13 08:27:19;;;;;;;;;;;;;;;;;;6331599;22;20013;-88
2022/12/13 08:29:45;;;;;;;;;;;;;;;;;;6302213;22;19915;-89
2022/12/13 08:32:11;;;;;;;;;;;;;;;;;;6330900;22;19926;-88
2022/12/13 08:34:37;;;;;;;;;;;;;;;;;;6328294;22;20251;-88
2022/12/13 08:37:03;;;;;;;;;;;;;;;;;;6331139;22;19924;-88
2022/12/13 08:39:29;;;;;;;;;;;;;;;;;;6330606;22;19922;-88
2022/12/13 08:41:55;;;;;;;;;;;;;;;;;;6329128;22;20436;-88
2022/12/13 08:44:21;;;;;;;;;;;;;;;;;;6327238;22;20275;-88
2022/12/13 08:46:47;;;;;;;;;;;;;;;;;;6325839;22;19963;-88
2022/12/13 08:49:13;;;;;;;;;;;;;;;;;;6306561;22;20475;-89
2022/12/13 08:51:39;;;;;;;;;;;;;;;;;;6326822;22;19922;-88
2022/12/13 08:54:05;;;;;;;;;;;;;;;;;;6331953;22;19918;-88
2022/12/13 08:56:31;;;;;;;;;;;;;;;;;;6330140;22;20323;-88
2022/12/13 08:58:57;;;;;;;;;;;;;;;;;;6329265;22;20292;-88
2022/12/13 09:01:23;;;;;;;;;;;;;;;;;;6331465;22;20324;-88
2022/12/13 09:03:49;;;;;;;;;;;;;;;;;;6326301;22;19918;-89
2022/12/13 09:06:15;;;;;;;;;;;;;;;;;;6356757;22;19918;-88
2022/12/13 09:08:41;;;;;;;;;;;;;;;;;;6302342;22;19922;-88
2022/12/13 09:11:07;;;;;;;;;;;;;;;;;;6304519;22;19925;-88
2022/12/13 09:13:33;;;;;;;;;;;;;;;;;;6305025;22;19918;-88
2022/12/13 09:15:59;;;;;;;;;;;;;;;;;;6329894;22;20277;-88
2022/12/13 09:18:25;;;;;;;;;;;;;;;;;;6330047;22;19963;-88
2022/12/13 09:20:51;;;;;;;;;;;;;;;;;;6356514;22;19941;-88
2022/12/13 09:23:17;;;;;;;;;;;;;;;;;;6332011;22;19918;-89
2022/12/13 09:25:43;;;;;;;;;;;;;;;;;;6326251;22;19921;-89
2022/12/13 09:28:09;;;;;;;;;;;;;;;;;;6330521;22;19938;-88
2022/12/13 09:30:35;;;;;;;;;;;;;;;;;;6327550;22;19961;-88
2022/12/13 09:33:01;;;;;;;;;;;;;;;;;;6304188;22;19922;-89
2022/12/13 09:35:27;;;;;;;;;;;;;;;;;;6305044;22;19985;-88
2022/12/13 09:37:53;;;;;;;;;;;;;;;;;;6327102;22;19922;-89
2022/12/13 09:40:19;;;;;;;;;;;;;;;;;;6304832;22;20326;-88
2022/12/13 09:42:45;;;;;;;;;;;;;;;;;;6298923;22;19918;-89
2022/12/13 09:45:10;;;;;;;;;;;;;;;;;;6303620;22;19993;-89
2022/12/13 09:47:36;;;;;;;;;;;;;;;;;;6325150;22;19925;-89
2022/12/13 09:50:03;;;;;;;;;;;;;;;;;;6327762;22;19914;-89
2022/12/13 09:52:29;;;;;;;;;;;;;;;;;;6304345;22;20701;-88
2022/12/13 09:54:55;;;;;;;;;;;;;;;;;;6328541;22;19928;-89
2022/12/13 09:57:21;;;;;;;;;;;;;;;;;;6306341;22;19989;-89
2022/12/13 09:59:47;;;;;;;;;;;;;;;;;;6326220;22;19961;-88
2022/12/13 10:02:12;;;;;;;;;;;;;;;;;;6329369;22;19918;-89
2022/12/13 10:04:38;;;;;;;;;;;;;;;;;;6301784;22;19914;-89
2022/12/13 10:07:04;;;;;;;;;;;;;;;;;;6329455;22;19918;-89
2022/12/13 10:09:30;;;;;;;;;;;;;;;;;;6304753;22;19918;-89
2022/12/13 10:11:56;;;;;;;;;;;;;;;;;;6325196;22;19976;-89
2022/12/13 10:14:22;;;;;;;;;;;;;;;;;;6329856;22;19918;-88
2022/12/13 10:16:48;;;;;;;;;;;;;;;;;;6328240;22;19924;-89
2022/12/13 10:19:14;;;;;;;;;;;;;;;;;;6360951;22;19918;-89
2022/12/13 10:21:40;;;;;;;;;;;;;;;;;;6354735;22;19950;-89
2022/12/13 10:24:06;;;;;;;;;;;;;;;;;;6358453;22;19914;-88
2022/12/13 10:26:33;;;;;;;;;;;;;;;;;;6329978;22;19918;-89
2022/12/13 10:28:59;;;;;;;;;;;;;;;;;;6355102;22;20291;-89
2022/12/13 10:31:25;;;;;;;;;;;;;;;;;;6329636;22;19925;-88
2022/12/13 10:33:51;;;;;;;;;;;;;;;;;;6329330;22;20294;-89
2022/12/13 10:36:17;;;;;;;;;;;;;;;;;;6355296;22;20701;-89
2022/12/13 10:38:43;;;;;;;;;;;;;;;;;;6326433;22;19929;-90
2022/12/13 10:41:09;;;;;;;;;;;;;;;;;;6305578;22;19918;-89
2022/12/13 10:43:35;;;;;;;;;;;;;;;;;;6329669;22;20335;-89
2022/12/13 10:46:01;;;;;;;;;;;;;;;;;;6356619;22;19925;-89
2022/12/13 10:48:27;;;;;;;;;;;;;;;;;;6331218;22;19964;-89
2022/12/13 10:50:52;;;;;;;;;;;;;;;;;;6327301;22;19914;-89
2022/12/13 10:53:19;;;;;;;;;;;;;;;;;;6332417;22;19926;-89
2022/12/13 10:55:45;;;;;;;;;;;;;;;;;;6331332;22;19922;-89
2022/12/13 10:58:11;;;;;;;;;;;;;;;;;;6306300;22;19989;-89
2022/12/13 11:00:37;;;;;;;;;;;;;;;;;;6305722;22;19918;-89
2022/12/13 11:03:03;;;;;;;;;;;;;;;;;;6333235;22;19925;-89
2022/12/13 11:05:31;;;;;;;;;;;;;;;;;;6359441;22;19918;-89
2022/12/13 11:07:57;;;;;;;;;;;;;;;;;;6301871;22;19918;-89
2022/12/13 11:10:23;;;;;;;;;;;;;;;;;;6329122;22;19920;-89
2022/12/13 11:12:49;;;;;;;;;;;;;;;;;;6358935;22;20414;-89
2022/12/13 11:15:15;;;;;;;;;;;;;;;;;;6334851;22;19925;-89
2022/12/13 11:17:41;;;;;;;;;;;;;;;;;;6357733;22;20395;-89
2022/12/13 11:20:07;;;;;;;;;;;;;;;;;;6362365;22;19914;-88
2022/12/13 11:22:33;;;;;;;;;;;;;;;;;;6307397;22;19918;-89
2022/12/13 11:24:58;;;;;;;;;;;;;;;;;;6305869;22;19914;-89
2022/12/13 11:27:24;;;;;;;;;;;;;;;;;;6332900;22;19924;-89
2022/12/13 11:29:50;;;;;;;;;;;;;;;;;;6332175;22;19972;-89
2022/12/13 11:32:16;;;;;;;;;;;;;;;;;;6333824;22;19968;-89
2022/12/13 11:34:42;;;;;;;;;;;;;;;;;;6332337;22;19941;-89
2022/12/13 11:37:09;;;;;;;;;;;;;;;;;;6309331;22;19921;-90
2022/12/13 11:39:35;;;;;;;;;;;;;;;;;;6308147;22;19922;-90
2022/12/13 11:42:00;;;;;;;;;;;;;;;;;;6306776;22;20311;-90
2022/12/13 11:44:27;;;;;;;;;;;;;;;;;;6333872;22;20011;-90
2022/12/13 11:46:53;;;;;;;;;;;;;;;;;;6333143;22;19967;-90
2022/12/13 11:49:19;;;;;;;;;;;;;;;;;;6310401;22;19914;-90
2022/12/13 11:51:45;;;;;;;;;;;;;;;;;;6305546;22;19922;-90
2022/12/13 11:54:11;;;;;;;;;;;;;;;;;;6309508;22;20338;-90
2022/12/13 11:56:37;;;;;;;;;;;;;;;;;;6303650;22;19918;-91
2022/12/13 11:59:03;;;;;;;;;;;;;;;;;;6307740;22;19963;-90
2022/12/13 12:01:29;;;;;;;;;;;;;;;;;;6333556;22;19967;-90
2022/12/13 12:03:55;;;;;;;;;;;;;;;;;;6332143;22;20804;-90
2022/12/13 12:06:21;;;;;;;;;;;;;;;;;;6308341;22;19925;-90
2022/12/13 12:08:47;;;;;;;;;;;;;;;;;;6331177;22;19926;-90
2022/12/13 12:11:13;;;;;;;;;;;;;;;;;;6307517;22;19926;-89
2022/12/13 12:13:39;;;;;;;;;;;;;;;;;;6304952;22;20350;-90
2022/12/13 12:16:05;;;;;;;;;;;;;;;;;;6329742;22;19918;-89
2022/12/13 12:18:32;;;;;;;;;;;;;;;;;;6303953;22;19918;-85
2022/12/13 12:20:58;;;;;;;;;;;;;;;;;;6302238;22;20012;-85
2022/12/13 12:23:24;;;;;;;;;;;;;;;;;;6331892;22;19925;-84
2022/12/13 12:25:50;;;;;;;;;;;;;;;;;;6356506;22;19921;-84
2022/12/13 12:28:16;;;;;;;;;;;;;;;;;;6306466;22;19925;-84
2022/12/13 12:30:42;;;;;;;;;;;;;;;;;;6355523;22;19918;-84
2022/12/13 12:33:08;;;;;;;;;;;;;;;;;;6333228;22;19989;-84
2022/12/13 12:35:34;;;;;;;;;;;;;;;;;;6306517;22;19938;-84
2022/12/13 12:38:00;;;;;;;;;;;;;;;;;;6328642;22;19930;-84
2022/12/13 12:40:31;;;;;;;;;;;;;;;;;;6305001;22;19914;-84
2022/12/13 12:42:57;;;;;;;;;;;;;;;;;;6329444;22;20398;-84
2022/12/13 12:45:23;;;;;;;;;;;;;;;;;;6355895;22;19924;-85
2022/12/13 12:47:49;;;;;;;;;;;;;;;;;;6329043;22;20354;-85
2022/12/13 12:50:15;;;;;;;;;;;;;;;;;;6331414;22;20242;-85
2022/12/13 12:52:41;;;;;;;;;;;;;;;;;;6329155;22;19926;-85
2022/12/13 12:55:07;;;;;;;;;;;;;;;;;;6330398;22;19919;-85
2022/12/13 12:57:33;;;;;;;;;;;;;;;;;;6328011;22;19919;-85
2022/12/13 12:59:59;;;;;;;;;;;;;;;;;;6327231;22;19920;-85
2022/12/13 13:02:25;;;;;;;;;;;;;;;;;;6304480;22;19918;-85
2022/12/13 13:04:51;;;;;;;;;;;;;;;;;;6304944;22;19929;-85
2022/12/13 13:07:16;;;;;;;;;;;;;;;;;;6324505;22;19914;-85
2022/12/13 13:16:15;;;;;;;;;;;;;;;;;;;;;
2022/12/13 13:19:12;;;;;;;;;;;;;;;;;;;;;
2022/12/13 13:36:33;;;;;;;;;;;;;;;;;;;;;
2022/12/13 13:39:21;;;;;;;;;;;;;;;;;;6087356;23;19921;-85
2022/12/13 13:48:18;;;;;;;;;;;;;;;;;;;;;
2022/12/13 13:50:49;;;;;;;;;;;;;;;;;;6140580;23;19924;-84
2022/12/13 13:53:36;;;;;;;;;;;;;;;;;;6147477;23;19920;-84
2022/12/13 13:56:21;;;;;;;;;;;;;;;;;;;;;
2022/12/13 13:59:20;;;;;;;;;;;;;;;;;;6137661;23;19917;-84
2022/12/13 14:04:46;;;;;;;;;;;;;;;;;;6043114;23;20474;-84
2022/12/13 14:07:28;;;;;;;;;;;;;;;;;;;;;
2022/12/13 14:10:13;;;;;;;;;;;;;;;;;;;;;
2022/12/13 14:12:42;;;;;;;;;;;;;;;;;;6290630;22;19918;-84
2022/12/13 14:15:27;;;;;;;;;;;;;;;;;;6269284;22;19915;-84
2022/12/13 14:18:01;;;;;;;;;;;;;;;;;;6262849;22;20992;-84
2022/12/13 14:20:41;;;;;;;;;;;;;;;;;;6320288;22;19994;-84
2022/12/13 14:23:12;;;;;;;;;;;;;;;;;;6267704;22;19942;-83
2022/12/13 14:28:37;;;;;;;;;;;;;;;;;;6277911;22;20005;-84
2022/12/13 14:31:27;;;;;;;;;;;;;;;;;;6294705;22;19923;-84
2022/12/13 14:33:55;;;;;;;;;;;;;;;;;;6293164;22;19922;-84
2022/12/13 14:36:44;;;;;;;;;;;;;;;;;;6272536;22;19921;-84
2022/12/13 14:39:35;;;;;;;;;;;;;;;;;;6252182;22;20335;-84
2022/12/13 14:42:12;;;;;;;;;;;;;;;;;;6251549;22;19919;-84
2022/12/13 14:47:38;;;;;;;;;;;;;;;;;;6219526;22;20336;-84
2022/12/13 14:50:20;;;;;;;;;;;;;;;;;;6203203;23;19923;-84
2022/12/13 14:52:59;;;;;;;;;;;;;;;;;;6202606;23;19920;-84
2022/12/13 14:55:29;;;;;;;;;;;;;;;;;;6204873;23;19919;-84
2022/12/13 14:57:55;;;;;;;;;;;;;;;;;;6199559;23;20378;-84
2022/12/13 15:00:24;;;;;;;;;;;;;;;;;;6202114;23;19924;-85
2022/12/13 15:03:01;;;;;;;;;;;;;;;;;;6201406;23;19924;-85
2022/12/13 15:05:27;;;;;;;;;;;;;;;;;;6202420;23;19920;-85
2022/12/13 15:08:11;;;;;;;;;;;;;;;;;;6206197;23;19967;-84
2022/12/13 15:10:40;;;;;;;;;;;;;;;;;;6213213;23;20323;-85
2022/12/13 15:13:17;;;;;;;;;;;;;;;;;;;;;
2022/12/13 15:15:58;;;;;;;;;;;;;;;;;;;;;
2022/12/13 15:18:35;;;;;;;;;;;;;;;;;;;;;
2022/12/13 15:21:11;;;;;;;;;;;;;;;;;;;;;
2022/12/13 15:23:42;;;;;;;;;;;;;;;;;;6203872;23;20184;-84
2022/12/13 15:29:07;;;;;;;;;;;;;;;;;;6201132;23;20489;-84
2022/12/13 15:31:33;;;;;;;;;;;;;;;;;;6229340;23;19924;-84
2022/12/13 15:34:15;;;;;;;;;;;;;;;;;;6202061;23;19926;-84
2022/12/13 15:36:47;;;;;;;;;;;;;;;;;;6195621;23;19920;-84
2022/12/13 15:39:22;;;;;;;;;;;;;;;;;;6202841;23;19926;-84
2022/12/13 15:41:54;;;;;;;;;;;;;;;;;;6195498;23;19997;-84
2022/12/13 15:44:26;;;;;;;;;;;;;;;;;;6201390;23;20385;-84
2022/12/13 15:46:54;;;;;;;;;;;;;;;;;;6228285;22;19943;-84
2022/12/13 15:49:23;;;;;;;;;;;;;;;;;;6262313;22;19923;-84
2022/12/13 15:51:49;;;;;;;;;;;;;;;;;;6259301;22;19919;-84
2022/12/13 15:54:21;;;;;;;;;;;;;;;;;;6287387;22;19981;-84
2022/12/13 15:56:52;;;;;;;;;;;;;;;;;;6231133;22;19926;-84
2022/12/13 15:59:24;;;;;;;;;;;;;;;;;;6261933;22;20594;-84
2022/12/13 16:01:50;;;;;;;;;;;;;;;;;;6232535;22;19926;-84
2022/12/13 16:04:16;;;;;;;;;;;;;;;;;;6236512;22;20025;-84
2022/12/13 16:06:42;;;;;;;;;;;;;;;;;;6257205;22;19919;-84
2022/12/13 16:09:11;;;;;;;;;;;;;;;;;;6261255;22;19923;-84
2022/12/13 16:11:59;;;;;;;;;;;;;;;;;;6255892;22;19915;-84
2022/12/13 16:14:35;;;;;;;;;;;;;;;;;;;;;
2022/12/13 16:17:23;;;;;;;;;;;;;;;;;;6248688;22;19915;-84
2022/12/13 16:19:50;;;;;;;;;;;;;;;;;;6200145;23;19919;-84
2022/12/13 16:22:27;;;;;;;;;;;;;;;;;;6204501;23;20287;-84
2022/12/13 16:25:06;;;;;;;;;;;;;;;;;;;;;
2022/12/13 16:27:56;;;;;;;;;;;;;;;;;;6137522;23;19931;-84
2022/12/13 16:30:24;;;;;;;;;;;;;;;;;;6142195;23;19924;-84
2022/12/13 16:32:52;;;;;;;;;;;;;;;;;;6140060;23;19920;-84
2022/12/13 16:35:20;;;;;;;;;;;;;;;;;;6142037;23;19920;-84
2022/12/13 16:37:52;;;;;;;;;;;;;;;;;;6137363;23;20042;-85
2022/12/13 16:40:18;;;;;;;;;;;;;;;;;;6142179;23;20281;-84
2022/12/13 16:42:46;;;;;;;;;;;;;;;;;;6143629;23;19946;-84
2022/12/13 16:45:12;;;;;;;;;;;;;;;;;;6142662;23;19917;-84
2022/12/13 16:47:38;;;;;;;;;;;;;;;;;;6142060;23;19921;-84
2022/12/13 16:50:04;;;;;;;;;;;;;;;;;;6143359;23;19931;-84
2022/12/13 16:52:48;;;;;;;;;;;;;;;;;;6142296;23;19928;-84
2022/12/13 16:55:32;;;;;;;;;;;;;;;;;;6158064;23;19919;-84
2022/12/13 16:57:58;;;;;;;;;;;;;;;;;;6225176;22;19919;-84
2022/12/13 17:00:33;;;;;;;;;;;;;;;;;;6239286;22;19989;-83
2022/12/13 17:03:06;;;;;;;;;;;;;;;;;;6232120;22;19919;-84
2022/12/13 17:05:35;;;;;;;;;;;;;;;;;;6199981;23;20782;-84
2022/12/13 17:08:10;;;;;;;;;;;;;;;;;;6223098;23;19926;-84
2022/12/13 17:10:44;;;;;;;;;;;;;;;;;;6193494;23;19930;-84
2022/12/13 17:13:10;;;;;;;;;;;;;;;;;;6136806;23;20605;-84
2022/12/13 17:15:46;;;;;;;;;;;;;;;;;;6102258;23;19925;-84
2022/12/13 17:18:39;;;;;;;;;;;;;;;;;;6133184;23;19959;-84
2022/12/13 17:21:19;;;;;;;;;;;;;;;;;;6110638;23;19920;-84
2022/12/13 17:23:47;;;;;;;;;;;;;;;;;;6106908;23;19928;-85
2022/12/13 17:26:21;;;;;;;;;;;;;;;;;;6112970;23;19921;-84
2022/12/13 17:28:56;;;;;;;;;;;;;;;;;;6107819;23;19935;-84
2022/12/13 17:31:32;;;;;;;;;;;;;;;;;;6053870;23;19981;-84
2022/12/13 17:34:25;;;;;;;;;;;;;;;;;;6053326;23;19965;-83
2022/12/13 17:37:12;;;;;;;;;;;;;;;;;;6097527;23;19928;-84
2022/12/13 17:39:44;;;;;;;;;;;;;;;;;;6105013;23;20365;-83
2022/12/13 17:42:22;;;;;;;;;;;;;;;;;;6085090;23;19921;-83
2022/12/13 17:47:53;;;;;;;;;;;;;;;;;;;;;
2022/12/13 17:50:22;;;;;;;;;;;;;;;;;;6113569;23;20046;-84
2022/12/13 17:52:50;;;;;;;;;;;;;;;;;;6168711;23;20245;-85